sensor_id;sensor_type;location;lat;lon;timestamp;temperature;humidity
37281;DHT22;23169;41.804;12.596;2023-03-08T00:00:50;12.50;50.40
37281;DHT22;23169;41.804;12.596;2023-03-08T00:03:18;12.50;52.20
37281;DHT22;23169;41.804;12.596;2023-03-08T00:05:45;12.50;53.40
37281;DHT22;23169;41.804;12.596;2023-03-08T00:08:13;12.50;55.80
37281;DHT22;23169;41.804;12.596;2023-03-08T00:10:41;12.50;58.40
37281;DHT22;23169;41.804;12.596;2023-03-08T00:13:09;12.40;61.30
37281;DHT22;23169;41.804;12.596;2023-03-08T00:15:37;12.40;64.70
37281;DHT22;23169;41.804;12.596;2023-03-08T00:18:05;12.40;66.50
37281;DHT22;23169;41.804;12.596;2023-03-08T00:20:33;12.40;81.60
37281;DHT22;23169;41.804;12.596;2023-03-08T00:23:00;12.50;70.60
37281;DHT22;23169;41.804;12.596;2023-03-08T00:25:28;12.50;71.20
37281;DHT22;23169;41.804;12.596;2023-03-08T00:27:57;12.50;72.00
37281;DHT22;23169;41.804;12.596;2023-03-08T00:30:24;12.50;73.50
37281;DHT22;23169;41.804;12.596;2023-03-08T00:32:52;12.50;74.70
37281;DHT22;23169;41.804;12.596;2023-03-08T00:35:19;12.50;76.60
37281;DHT22;23169;41.804;12.596;2023-03-08T00:37:51;12.50;78.40
37281;DHT22;23169;41.804;12.596;2023-03-08T00:40:23;12.10;99.90
37281;DHT22;23169;41.804;12.596;2023-03-08T00:43:04;13.20;99.90
37281;DHT22;23169;41.804;12.596;2023-03-08T00:45:38;12.60;80.90
37281;DHT22;23169;41.804;12.596;2023-03-08T00:48:11;12.60;80.40
37281;DHT22;23169;41.804;12.596;2023-03-08T00:50:40;12.60;80.90
37281;DHT22;23169;41.804;12.596;2023-03-08T00:53:08;12.60;82.00
37281;DHT22;23169;41.804;12.596;2023-03-08T00:55:36;12.60;83.60
37281;DHT22;23169;41.804;12.596;2023-03-08T00:58:04;12.60;85.20
37281;DHT22;23169;41.804;12.596;2023-03-08T01:00:32;12.60;86.20
37281;DHT22;23169;41.804;12.596;2023-03-08T01:03:00;12.60;88.00
37281;DHT22;23169;41.804;12.596;2023-03-08T01:05:28;12.70;99.90
37281;DHT22;23169;41.804;12.596;2023-03-08T01:07:57;12.60;88.30
37281;DHT22;23169;41.804;12.596;2023-03-08T01:10:25;12.70;89.30
37281;DHT22;23169;41.804;12.596;2023-03-08T01:12:54;12.70;89.00
37281;DHT22;23169;41.804;12.596;2023-03-08T01:15:22;12.70;88.40
37281;DHT22;23169;41.804;12.596;2023-03-08T01:17:51;12.70;83.60
37281;DHT22;23169;41.804;12.596;2023-03-08T01:20:19;12.70;85.90
37281;DHT22;23169;41.804;12.596;2023-03-08T01:22:47;12.70;86.70
37281;DHT22;23169;41.804;12.596;2023-03-08T01:25:16;12.70;87.00
37281;DHT22;23169;41.804;12.596;2023-03-08T01:27:45;12.70;86.80
37281;DHT22;23169;41.804;12.596;2023-03-08T01:30:14;12.70;87.20
37281;DHT22;23169;41.804;12.596;2023-03-08T01:32:43;12.70;86.80
37281;DHT22;23169;41.804;12.596;2023-03-08T01:35:11;12.70;86.70
37281;DHT22;23169;41.804;12.596;2023-03-08T01:37:41;12.80;86.80
37281;DHT22;23169;41.804;12.596;2023-03-08T01:40:13;12.70;85.80
37281;DHT22;23169;41.804;12.596;2023-03-08T01:42:42;12.70;85.50
37281;DHT22;23169;41.804;12.596;2023-03-08T01:48:19;12.70;86.20
37281;DHT22;23169;41.804;12.596;2023-03-08T01:50:51;12.80;85.90
37281;DHT22;23169;41.804;12.596;2023-03-08T01:53:20;12.70;85.80
37281;DHT22;23169;41.804;12.596;2023-03-08T01:55:49;12.80;84.70
37281;DHT22;23169;41.804;12.596;2023-03-08T01:58:17;12.80;85.20
37281;DHT22;23169;41.804;12.596;2023-03-08T02:00:47;12.80;84.80
37281;DHT22;23169;41.804;12.596;2023-03-08T02:03:16;12.80;84.20
37281;DHT22;23169;41.804;12.596;2023-03-08T02:05:44;12.80;82.00
37281;DHT22;23169;41.804;12.596;2023-03-08T02:08:14;12.80;81.50
37281;DHT22;23169;41.804;12.596;2023-03-08T02:10:43;12.70;82.10
37281;DHT22;23169;41.804;12.596;2023-03-08T02:13:12;12.70;82.10
37281;DHT22;23169;41.804;12.596;2023-03-08T02:15:41;12.70;80.60
37281;DHT22;23169;41.804;12.596;2023-03-08T02:18:09;12.70;80.30
37281;DHT22;23169;41.804;12.596;2023-03-08T02:20:39;12.70;80.20
37281;DHT22;23169;41.804;12.596;2023-03-08T02:23:20;12.70;80.10
37281;DHT22;23169;41.804;12.596;2023-03-08T02:25:59;12.70;79.50
37281;DHT22;23169;41.804;12.596;2023-03-08T02:28:31;12.70;78.60
37281;DHT22;23169;41.804;12.596;2023-03-08T02:31:00;12.70;78.00
37281;DHT22;23169;41.804;12.596;2023-03-08T02:33:30;12.70;78.60
37281;DHT22;23169;41.804;12.596;2023-03-08T02:36:01;12.70;78.70
37281;DHT22;23169;41.804;12.596;2023-03-08T02:38:30;12.70;78.00
37281;DHT22;23169;41.804;12.596;2023-03-08T02:40:59;12.70;77.60
37281;DHT22;23169;41.804;12.596;2023-03-08T02:43:28;12.70;76.00
37281;DHT22;23169;41.804;12.596;2023-03-08T02:45:57;12.80;74.60
37281;DHT22;23169;41.804;12.596;2023-03-08T02:48:26;12.80;84.40
37281;DHT22;23169;41.804;12.596;2023-03-08T02:50:55;12.90;71.50
37281;DHT22;23169;41.804;12.596;2023-03-08T02:53:23;12.90;69.30
37281;DHT22;23169;41.804;12.596;2023-03-08T02:55:51;12.90;68.50
37281;DHT22;23169;41.804;12.596;2023-03-08T02:58:21;12.90;67.30
37281;DHT22;23169;41.804;12.596;2023-03-08T03:00:50;12.90;65.90
37281;DHT22;23169;41.804;12.596;2023-03-08T03:03:18;13.00;65.40
37281;DHT22;23169;41.804;12.596;2023-03-08T03:05:47;13.00;63.40
37281;DHT22;23169;41.804;12.596;2023-03-08T03:08:15;13.00;62.90
37281;DHT22;23169;41.804;12.596;2023-03-08T03:10:44;12.90;63.20
37281;DHT22;23169;41.804;12.596;2023-03-08T03:13:12;13.00;61.30
37281;DHT22;23169;41.804;12.596;2023-03-08T03:15:41;13.00;61.60
37281;DHT22;23169;41.804;12.596;2023-03-08T03:18:10;13.00;60.90
37281;DHT22;23169;41.804;12.596;2023-03-08T03:20:39;13.00;61.10
37281;DHT22;23169;41.804;12.596;2023-03-08T03:23:08;13.00;60.90
37281;DHT22;23169;41.804;12.596;2023-03-08T03:25:37;13.00;61.40
37281;DHT22;23169;41.804;12.596;2023-03-08T03:28:06;13.00;61.30
37281;DHT22;23169;41.804;12.596;2023-03-08T03:30:35;13.00;62.40
37281;DHT22;23169;41.804;12.596;2023-03-08T03:33:03;12.90;61.10
37281;DHT22;23169;41.804;12.596;2023-03-08T03:35:32;12.90;61.10
37281;DHT22;23169;41.804;12.596;2023-03-08T03:38:02;12.90;61.90
37281;DHT22;23169;41.804;12.596;2023-03-08T03:40:32;12.90;61.00
37281;DHT22;23169;41.804;12.596;2023-03-08T03:43:00;12.90;61.20
37281;DHT22;23169;41.804;12.596;2023-03-08T03:45:30;13.00;59.50
37281;DHT22;23169;41.804;12.596;2023-03-08T03:47:58;13.00;57.50
37281;DHT22;23169;41.804;12.596;2023-03-08T03:50:27;13.00;57.50
37281;DHT22;23169;41.804;12.596;2023-03-08T03:52:56;13.00;56.50
37281;DHT22;23169;41.804;12.596;2023-03-08T03:55:25;13.00;56.50
37281;DHT22;23169;41.804;12.596;2023-03-08T03:57:54;13.10;55.40
37281;DHT22;23169;41.804;12.596;2023-03-08T04:00:23;13.10;54.40
37281;DHT22;23169;41.804;12.596;2023-03-08T04:02:52;13.10;53.80
37281;DHT22;23169;41.804;12.596;2023-03-08T04:05:21;12.70;77.20
37281;DHT22;23169;41.804;12.596;2023-03-08T04:07:58;13.10;51.50
37281;DHT22;23169;41.804;12.596;2023-03-08T04:10:31;13.10;49.40
37281;DHT22;23169;41.804;12.596;2023-03-08T04:13:03;13.10;47.90
37281;DHT22;23169;41.804;12.596;2023-03-08T04:15:36;13.10;48.80
37281;DHT22;23169;41.804;12.596;2023-03-08T04:18:07;13.10;50.00
37281;DHT22;23169;41.804;12.596;2023-03-08T04:20:37;13.10;48.70
37281;DHT22;23169;41.804;12.596;2023-03-08T04:23:06;13.10;48.10
37281;DHT22;23169;41.804;12.596;2023-03-08T04:25:35;13.10;47.10
37281;DHT22;23169;41.804;12.596;2023-03-08T04:28:04;13.10;47.50
37281;DHT22;23169;41.804;12.596;2023-03-08T04:30:33;13.10;47.10
37281;DHT22;23169;41.804;12.596;2023-03-08T04:33:02;13.20;45.80
37281;DHT22;23169;41.804;12.596;2023-03-08T04:35:31;13.20;44.50
37281;DHT22;23169;41.804;12.596;2023-03-08T04:38:00;13.20;44.30
37281;DHT22;23169;41.804;12.596;2023-03-08T04:40:29;13.20;45.10
37281;DHT22;23169;41.804;12.596;2023-03-08T04:42:58;13.10;44.60
37281;DHT22;23169;41.804;12.596;2023-03-08T04:45:27;13.20;45.20
37281;DHT22;23169;41.804;12.596;2023-03-08T04:47:57;13.20;44.50
37281;DHT22;23169;41.804;12.596;2023-03-08T04:50:26;13.10;44.70
37281;DHT22;23169;41.804;12.596;2023-03-08T04:52:54;13.10;45.50
37281;DHT22;23169;41.804;12.596;2023-03-08T04:55:22;13.10;47.10
37281;DHT22;23169;41.804;12.596;2023-03-08T04:57:51;13.10;49.00
37281;DHT22;23169;41.804;12.596;2023-03-08T05:00:19;12.70;92.10
37281;DHT22;23169;41.804;12.596;2023-03-08T05:02:48;13.00;49.90
37281;DHT22;23169;41.804;12.596;2023-03-08T05:05:16;13.10;82.00
37281;DHT22;23169;41.804;12.596;2023-03-08T05:07:45;13.10;53.40
37281;DHT22;23169;41.804;12.596;2023-03-08T05:10:15;13.10;54.70
37281;DHT22;23169;41.804;12.596;2023-03-08T05:12:44;13.10;56.40
37281;DHT22;23169;41.804;12.596;2023-03-08T05:15:13;12.30;99.90
37281;DHT22;23169;41.804;12.596;2023-03-08T05:17:41;13.00;58.10
37281;DHT22;23169;41.804;12.596;2023-03-08T05:20:10;13.10;58.50
37281;DHT22;23169;41.804;12.596;2023-03-08T05:22:39;13.10;70.30
37281;DHT22;23169;41.804;12.596;2023-03-08T05:25:08;13.10;59.50
37281;DHT22;23169;41.804;12.596;2023-03-08T05:27:38;13.10;59.70
37281;DHT22;23169;41.804;12.596;2023-03-08T05:30:07;13.10;59.10
37281;DHT22;23169;41.804;12.596;2023-03-08T05:32:36;13.10;58.90
37281;DHT22;23169;41.804;12.596;2023-03-08T05:35:04;13.10;59.00
37281;DHT22;23169;41.804;12.596;2023-03-08T05:37:33;13.10;58.70
37281;DHT22;23169;41.804;12.596;2023-03-08T05:40:02;13.10;59.20
37281;DHT22;23169;41.804;12.596;2023-03-08T05:42:33;13.10;58.80
37281;DHT22;23169;41.804;12.596;2023-03-08T05:45:02;13.10;58.20
37281;DHT22;23169;41.804;12.596;2023-03-08T05:47:31;13.10;57.60
37281;DHT22;23169;41.804;12.596;2023-03-08T05:50:00;13.10;56.70
37281;DHT22;23169;41.804;12.596;2023-03-08T05:52:34;13.10;55.10
37281;DHT22;23169;41.804;12.596;2023-03-08T05:55:09;13.20;54.90
37281;DHT22;23169;41.804;12.596;2023-03-08T05:57:41;13.20;54.90
37281;DHT22;23169;41.804;12.596;2023-03-08T06:00:10;13.20;54.80
37281;DHT22;23169;41.804;12.596;2023-03-08T06:02:39;13.20;54.90
37281;DHT22;23169;41.804;12.596;2023-03-08T06:05:07;13.20;55.00
37281;DHT22;23169;41.804;12.596;2023-03-08T06:07:36;13.30;55.30
37281;DHT22;23169;41.804;12.596;2023-03-08T06:10:05;13.30;55.40
37281;DHT22;23169;41.804;12.596;2023-03-08T06:12:34;13.20;55.90
37281;DHT22;23169;41.804;12.596;2023-03-08T06:15:03;13.30;57.40
37281;DHT22;23169;41.804;12.596;2023-03-08T06:17:32;13.30;57.20
37281;DHT22;23169;41.804;12.596;2023-03-08T06:20:00;13.30;57.80
37281;DHT22;23169;41.804;12.596;2023-03-08T06:22:29;13.30;57.70
37281;DHT22;23169;41.804;12.596;2023-03-08T06:24:57;13.30;57.20
37281;DHT22;23169;41.804;12.596;2023-03-08T06:27:26;13.40;57.30
37281;DHT22;23169;41.804;12.596;2023-03-08T06:29:55;13.40;56.50
37281;DHT22;23169;41.804;12.596;2023-03-08T06:32:23;13.40;56.30
37281;DHT22;23169;41.804;12.596;2023-03-08T06:34:51;13.50;55.90
37281;DHT22;23169;41.804;12.596;2023-03-08T06:37:20;13.50;56.00
37281;DHT22;23169;41.804;12.596;2023-03-08T06:39:48;13.50;55.20
37281;DHT22;23169;41.804;12.596;2023-03-08T06:42:16;13.50;54.70
37281;DHT22;23169;41.804;12.596;2023-03-08T06:44:45;13.50;54.90
37281;DHT22;23169;41.804;12.596;2023-03-08T06:47:13;13.50;54.70
37281;DHT22;23169;41.804;12.596;2023-03-08T06:49:42;13.60;54.20
37281;DHT22;23169;41.804;12.596;2023-03-08T06:52:11;13.60;54.00
37281;DHT22;23169;41.804;12.596;2023-03-08T06:54:39;13.60;54.30
37281;DHT22;23169;41.804;12.596;2023-03-08T06:57:07;13.60;53.90
37281;DHT22;23169;41.804;12.596;2023-03-08T06:59:36;13.60;53.60
37281;DHT22;23169;41.804;12.596;2023-03-08T07:02:05;13.60;53.30
37281;DHT22;23169;41.804;12.596;2023-03-08T07:04:34;13.70;53.30
37281;DHT22;23169;41.804;12.596;2023-03-08T07:07:02;13.70;53.00
37281;DHT22;23169;41.804;12.596;2023-03-08T07:09:31;13.80;53.60
37281;DHT22;23169;41.804;12.596;2023-03-08T07:12:00;13.80;53.80
37281;DHT22;23169;41.804;12.596;2023-03-08T07:14:28;13.70;53.30
37281;DHT22;23169;41.804;12.596;2023-03-08T07:16:57;13.80;54.70
37281;DHT22;23169;41.804;12.596;2023-03-08T07:19:25;13.80;55.20
37281;DHT22;23169;41.804;12.596;2023-03-08T07:21:53;13.80;54.20
37281;DHT22;23169;41.804;12.596;2023-03-08T07:24:22;13.80;55.10
37281;DHT22;23169;41.804;12.596;2023-03-08T07:26:50;13.90;55.50
37281;DHT22;23169;41.804;12.596;2023-03-08T07:29:18;13.90;55.50
37281;DHT22;23169;41.804;12.596;2023-03-08T07:31:48;13.90;56.10
37281;DHT22;23169;41.804;12.596;2023-03-08T07:34:16;13.90;56.40
37281;DHT22;23169;41.804;12.596;2023-03-08T07:36:45;13.90;57.00
37281;DHT22;23169;41.804;12.596;2023-03-08T07:39:13;13.90;57.50
37281;DHT22;23169;41.804;12.596;2023-03-08T07:41:41;14.00;58.60
37281;DHT22;23169;41.804;12.596;2023-03-08T07:44:10;13.90;57.70
37281;DHT22;23169;41.804;12.596;2023-03-08T07:46:38;14.00;58.60
37281;DHT22;23169;41.804;12.596;2023-03-08T07:49:07;14.00;57.80
37281;DHT22;23169;41.804;12.596;2023-03-08T07:51:38;14.10;58.10
37281;DHT22;23169;41.804;12.596;2023-03-08T07:54:08;14.10;58.40
37281;DHT22;23169;41.804;12.596;2023-03-08T07:56:39;14.20;56.50
37281;DHT22;23169;41.804;12.596;2023-03-08T07:59:07;14.30;55.70
37281;DHT22;23169;41.804;12.596;2023-03-08T08:01:36;14.40;56.10
37281;DHT22;23169;41.804;12.596;2023-03-08T08:04:04;14.40;53.40
37281;DHT22;23169;41.804;12.596;2023-03-08T08:06:35;14.40;54.10
37281;DHT22;23169;41.804;12.596;2023-03-08T08:09:04;14.60;72.00
37281;DHT22;23169;41.804;12.596;2023-03-08T08:11:37;14.40;53.40
37281;DHT22;23169;41.804;12.596;2023-03-08T08:14:06;14.40;53.90
37281;DHT22;23169;41.804;12.596;2023-03-08T08:16:35;14.40;55.50
37281;DHT22;23169;41.804;12.596;2023-03-08T08:19:04;14.40;54.80
37281;DHT22;23169;41.804;12.596;2023-03-08T08:21:32;14.50;53.90
37281;DHT22;23169;41.804;12.596;2023-03-08T08:24:00;14.50;52.10
37281;DHT22;23169;41.804;12.596;2023-03-08T08:26:29;14.60;54.20
37281;DHT22;23169;41.804;12.596;2023-03-08T08:28:57;14.60;53.10
37281;DHT22;23169;41.804;12.596;2023-03-08T08:31:27;14.60;51.90
37281;DHT22;23169;41.804;12.596;2023-03-08T08:33:58;14.60;49.70
37281;DHT22;23169;41.804;12.596;2023-03-08T08:36:28;14.70;50.60
37281;DHT22;23169;41.804;12.596;2023-03-08T08:38:56;14.70;46.90
37281;DHT22;23169;41.804;12.596;2023-03-08T08:41:25;14.80;46.70
37281;DHT22;23169;41.804;12.596;2023-03-08T08:43:55;14.80;44.30
37281;DHT22;23169;41.804;12.596;2023-03-08T08:46:27;14.80;46.50
37281;DHT22;23169;41.804;12.596;2023-03-08T08:48:57;14.80;45.60
37281;DHT22;23169;41.804;12.596;2023-03-08T08:51:26;14.90;46.50
37281;DHT22;23169;41.804;12.596;2023-03-08T08:53:55;14.90;43.30
37281;DHT22;23169;41.804;12.596;2023-03-08T08:56:26;15.00;42.80
37281;DHT22;23169;41.804;12.596;2023-03-08T08:58:59;15.00;40.60
37281;DHT22;23169;41.804;12.596;2023-03-08T09:01:30;15.00;41.30
37281;DHT22;23169;41.804;12.596;2023-03-08T09:03:59;15.00;42.50
37281;DHT22;23169;41.804;12.596;2023-03-08T09:06:29;15.00;42.80
37281;DHT22;23169;41.804;12.596;2023-03-08T09:08:59;14.90;41.40
37281;DHT22;23169;41.804;12.596;2023-03-08T09:11:28;15.00;44.30
37281;DHT22;23169;41.804;12.596;2023-03-08T09:13:57;15.20;44.30
37281;DHT22;23169;41.804;12.596;2023-03-08T09:16:28;15.00;44.00
37281;DHT22;23169;41.804;12.596;2023-03-08T09:18:58;15.40;45.10
37281;DHT22;23169;41.804;12.596;2023-03-08T09:21:28;15.50;43.90
37281;DHT22;23169;41.804;12.596;2023-03-08T09:24:01;15.40;40.10
37281;DHT22;23169;41.804;12.596;2023-03-08T09:26:32;15.30;40.80
37281;DHT22;23169;41.804;12.596;2023-03-08T09:29:02;15.20;41.10
37281;DHT22;23169;41.804;12.596;2023-03-08T09:31:35;15.20;42.10
37281;DHT22;23169;41.804;12.596;2023-03-08T09:34:04;15.10;42.90
37281;DHT22;23169;41.804;12.596;2023-03-08T09:36:37;15.10;43.70
37281;DHT22;23169;41.804;12.596;2023-03-08T09:39:09;15.20;43.80
37281;DHT22;23169;41.804;12.596;2023-03-08T09:42:01;15.30;42.90
37281;DHT22;23169;41.804;12.596;2023-03-08T09:52:43;15.80;39.10
37281;DHT22;23169;41.804;12.596;2023-03-08T09:55:22;15.70;38.30
37281;DHT22;23169;41.804;12.596;2023-03-08T10:01:03;15.60;37.70
37281;DHT22;23169;41.804;12.596;2023-03-08T10:03:43;15.70;39.80
37281;DHT22;23169;41.804;12.596;2023-03-08T10:09:20;15.70;37.30
37281;DHT22;23169;41.804;12.596;2023-03-08T10:11:53;15.60;42.90
37281;DHT22;23169;41.804;12.596;2023-03-08T10:14:29;15.70;33.90
37281;DHT22;23169;41.804;12.596;2023-03-08T10:17:07;15.80;34.40
37281;DHT22;23169;41.804;12.596;2023-03-08T10:19:42;15.70;31.60
37281;DHT22;23169;41.804;12.596;2023-03-08T10:22:33;15.90;32.40
37281;DHT22;23169;41.804;12.596;2023-03-08T10:25:27;15.90;31.50
37281;DHT22;23169;41.804;12.596;2023-03-08T10:28:01;15.90;29.80
37281;DHT22;23169;41.804;12.596;2023-03-08T10:33:17;15.80;28.60
37281;DHT22;23169;41.804;12.596;2023-03-08T10:38:25;15.90;29.90
37281;DHT22;23169;41.804;12.596;2023-03-08T10:41:02;16.00;29.90
37281;DHT22;23169;41.804;12.596;2023-03-08T10:43:37;16.00;29.50
37281;DHT22;23169;41.804;12.596;2023-03-08T10:46:12;16.00;31.20
37281;DHT22;23169;41.804;12.596;2023-03-08T10:48:43;16.00;30.00
37281;DHT22;23169;41.804;12.596;2023-03-08T10:51:27;16.00;30.20
37281;DHT22;23169;41.804;12.596;2023-03-08T10:53:59;16.30;29.60
37281;DHT22;23169;41.804;12.596;2023-03-08T10:57:17;16.30;26.50
37281;DHT22;23169;41.804;12.596;2023-03-08T10:59:39;16.30;25.90
37281;DHT22;23169;41.804;12.596;2023-03-08T11:02:19;16.40;26.30
37281;DHT22;23169;41.804;12.596;2023-03-08T11:04:55;16.50;25.80
37281;DHT22;23169;41.804;12.596;2023-03-08T11:07:31;16.50;24.40
37281;DHT22;23169;41.804;12.596;2023-03-08T11:12:41;16.60;21.70
37281;DHT22;23169;41.804;12.596;2023-03-08T11:15:17;16.80;23.30
37281;DHT22;23169;41.804;12.596;2023-03-08T11:17:54;16.60;23.50
37281;DHT22;23169;41.804;12.596;2023-03-08T11:20:43;16.70;22.40
37281;DHT22;23169;41.804;12.596;2023-03-08T11:23:31;16.70;22.30
37281;DHT22;23169;41.804;12.596;2023-03-08T11:26:18;16.80;15.90
37281;DHT22;23169;41.804;12.596;2023-03-08T11:29:05;16.70;17.80
37281;DHT22;23169;41.804;12.596;2023-03-08T11:37:07;16.90;15.80
37281;DHT22;23169;41.804;12.596;2023-03-08T11:39:44;17.40;13.30
37281;DHT22;23169;41.804;12.596;2023-03-08T11:50:35;17.50;3.60
37281;DHT22;23169;41.804;12.596;2023-03-08T12:03:49;17.70;1.00
37281;DHT22;23169;41.804;12.596;2023-03-08T12:06:28;17.80;1.00
37281;DHT22;23169;41.804;12.596;2023-03-08T12:09:05;17.20;1.00
37281;DHT22;23169;41.804;12.596;2023-03-08T12:11:46;16.90;1.00
37281;DHT22;23169;41.804;12.596;2023-03-08T12:14:45;16.90;1.00
37281;DHT22;23169;41.804;12.596;2023-03-08T12:17:35;17.00;1.00
37281;DHT22;23169;41.804;12.596;2023-03-08T12:20:13;17.20;1.00
37281;DHT22;23169;41.804;12.596;2023-03-08T12:23:07;17.50;1.00
37281;DHT22;23169;41.804;12.596;2023-03-08T12:25:33;17.40;1.00
37281;DHT22;23169;41.804;12.596;2023-03-08T12:33:36;19.40;1.00
37281;DHT22;23169;41.804;12.596;2023-03-08T12:36:06;19.60;1.00
37281;DHT22;23169;41.804;12.596;2023-03-08T12:38:39;19.00;1.00
37281;DHT22;23169;41.804;12.596;2023-03-08T12:41:38;19.00;1.00
37281;DHT22;23169;41.804;12.596;2023-03-08T12:44:23;18.50;1.00
37281;DHT22;23169;41.804;12.596;2023-03-08T12:46:55;17.60;1.00
37281;DHT22;23169;41.804;12.596;2023-03-08T12:49:25;17.20;1.00
37281;DHT22;23169;41.804;12.596;2023-03-08T12:51:57;17.00;1.00
37281;DHT22;23169;41.804;12.596;2023-03-08T12:54:29;17.80;4.40
37281;DHT22;23169;41.804;12.596;2023-03-08T12:57:00;17.60;1.00
37281;DHT22;23169;41.804;12.596;2023-03-08T12:59:34;17.90;1.00
37281;DHT22;23169;41.804;12.596;2023-03-08T13:02:31;18.60;1.00
37281;DHT22;23169;41.804;12.596;2023-03-08T13:05:17;19.40;1.00
37281;DHT22;23169;41.804;12.596;2023-03-08T13:10:36;19.60;1.00
37281;DHT22;23169;41.804;12.596;2023-03-08T13:15:38;19.60;1.00
37281;DHT22;23169;41.804;12.596;2023-03-08T13:28:43;17.70;1.00
37281;DHT22;23169;41.804;12.596;2023-03-08T13:31:17;18.00;1.00
37281;DHT22;23169;41.804;12.596;2023-03-08T13:33:51;17.40;1.00
37281;DHT22;23169;41.804;12.596;2023-03-08T13:36:28;17.60;1.00
37281;DHT22;23169;41.804;12.596;2023-03-08T13:39:06;17.80;1.00
37281;DHT22;23169;41.804;12.596;2023-03-08T13:41:38;17.50;1.00
37281;DHT22;23169;41.804;12.596;2023-03-08T13:44:26;17.10;1.00
37281;DHT22;23169;41.804;12.596;2023-03-08T13:47:03;16.90;1.00
37281;DHT22;23169;41.804;12.596;2023-03-08T13:49:41;16.80;1.00
37281;DHT22;23169;41.804;12.596;2023-03-08T13:52:24;16.60;1.00
37281;DHT22;23169;41.804;12.596;2023-03-08T13:54:59;16.60;1.00
37281;DHT22;23169;41.804;12.596;2023-03-08T13:57:34;16.60;1.00
37281;DHT22;23169;41.804;12.596;2023-03-08T14:00:26;16.80;2.20
37281;DHT22;23169;41.804;12.596;2023-03-08T14:02:54;16.80;10.40
37281;DHT22;23169;41.804;12.596;2023-03-08T14:05:30;17.00;1.30
37281;DHT22;23169;41.804;12.596;2023-03-08T14:08:04;16.60;1.00
37281;DHT22;23169;41.804;12.596;2023-03-08T14:10:40;16.60;1.10
37281;DHT22;23169;41.804;12.596;2023-03-08T14:13:36;16.30;2.40
37281;DHT22;23169;41.804;12.596;2023-03-08T14:16:06;16.40;4.30
37281;DHT22;23169;41.804;12.596;2023-03-08T14:18:39;16.30;5.40
37281;DHT22;23169;41.804;12.596;2023-03-08T14:21:19;16.40;5.80
37281;DHT22;23169;41.804;12.596;2023-03-08T14:23:56;16.20;3.70
37281;DHT22;23169;41.804;12.596;2023-03-08T14:26:31;16.10;1.90
37281;DHT22;23169;41.804;12.596;2023-03-08T14:34:39;16.40;1.00
37281;DHT22;23169;41.804;12.596;2023-03-08T14:39:43;16.40;1.00
37281;DHT22;23169;41.804;12.596;2023-03-08T14:47:31;16.20;1.00
37281;DHT22;23169;41.804;12.596;2023-03-08T14:52:47;16.40;1.00
37281;DHT22;23169;41.804;12.596;2023-03-08T14:55:27;16.40;1.00
37281;DHT22;23169;41.804;12.596;2023-03-08T14:58:04;16.30;1.00
37281;DHT22;23169;41.804;12.596;2023-03-08T15:00:35;16.30;1.00
37281;DHT22;23169;41.804;12.596;2023-03-08T15:03:05;16.20;1.00
37281;DHT22;23169;41.804;12.596;2023-03-08T15:05:33;16.40;1.00
37281;DHT22;23169;41.804;12.596;2023-03-08T15:08:03;16.60;1.00
37281;DHT22;23169;41.804;12.596;2023-03-08T15:10:35;17.20;1.00
37281;DHT22;23169;41.804;12.596;2023-03-08T15:13:08;17.10;1.00
37281;DHT22;23169;41.804;12.596;2023-03-08T15:15:38;17.10;1.00
37281;DHT22;23169;41.804;12.596;2023-03-08T15:20:41;17.50;1.00
37281;DHT22;23169;41.804;12.596;2023-03-08T15:23:26;17.80;1.00
37281;DHT22;23169;41.804;12.596;2023-03-08T15:25:56;18.10;1.00
37281;DHT22;23169;41.804;12.596;2023-03-08T15:28:26;18.00;1.00
37281;DHT22;23169;41.804;12.596;2023-03-08T15:30:54;17.80;1.00
37281;DHT22;23169;41.804;12.596;2023-03-08T15:33:22;18.10;1.00
37281;DHT22;23169;41.804;12.596;2023-03-08T15:35:51;18.30;1.00
37281;DHT22;23169;41.804;12.596;2023-03-08T15:38:20;18.40;1.00
37281;DHT22;23169;41.804;12.596;2023-03-08T15:40:48;18.20;1.00
37281;DHT22;23169;41.804;12.596;2023-03-08T15:45:46;18.00;1.00
37281;DHT22;23169;41.804;12.596;2023-03-08T15:48:16;17.90;1.00
37281;DHT22;23169;41.804;12.596;2023-03-08T15:50:45;17.80;1.00
37281;DHT22;23169;41.804;12.596;2023-03-08T15:53:14;18.20;1.00
37281;DHT22;23169;41.804;12.596;2023-03-08T15:55:45;17.90;1.00
37281;DHT22;23169;41.804;12.596;2023-03-08T15:58:14;17.70;1.00
37281;DHT22;23169;41.804;12.596;2023-03-08T16:00:42;17.10;1.00
37281;DHT22;23169;41.804;12.596;2023-03-08T16:03:12;17.20;1.00
37281;DHT22;23169;41.804;12.596;2023-03-08T16:05:41;17.00;1.00
37281;DHT22;23169;41.804;12.596;2023-03-08T16:08:10;17.00;1.00
37281;DHT22;23169;41.804;12.596;2023-03-08T16:10:39;17.10;1.00
37281;DHT22;23169;41.804;12.596;2023-03-08T16:13:08;17.10;1.00
37281;DHT22;23169;41.804;12.596;2023-03-08T16:15:40;16.80;1.00
37281;DHT22;23169;41.804;12.596;2023-03-08T16:18:09;16.40;1.00
37281;DHT22;23169;41.804;12.596;2023-03-08T16:20:41;16.10;1.00
37281;DHT22;23169;41.804;12.596;2023-03-08T16:23:10;15.80;1.00
37281;DHT22;23169;41.804;12.596;2023-03-08T16:25:39;15.60;1.00
37281;DHT22;23169;41.804;12.596;2023-03-08T16:28:10;15.50;1.00
37281;DHT22;23169;41.804;12.596;2023-03-08T16:30:38;15.40;1.00
37281;DHT22;23169;41.804;12.596;2023-03-08T16:33:09;15.40;1.00
37281;DHT22;23169;41.804;12.596;2023-03-08T16:35:38;15.30;1.00
37281;DHT22;23169;41.804;12.596;2023-03-08T16:38:06;15.20;1.00
37281;DHT22;23169;41.804;12.596;2023-03-08T16:40:36;15.20;1.00
37281;DHT22;23169;41.804;12.596;2023-03-08T16:43:05;15.10;1.00
37281;DHT22;23169;41.804;12.596;2023-03-08T16:45:35;15.10;1.00
37281;DHT22;23169;41.804;12.596;2023-03-08T16:48:04;15.00;1.00
37281;DHT22;23169;41.804;12.596;2023-03-08T16:50:32;14.90;1.00
37281;DHT22;23169;41.804;12.596;2023-03-08T16:53:01;14.90;1.00
37281;DHT22;23169;41.804;12.596;2023-03-08T16:55:34;14.90;1.00
37281;DHT22;23169;41.804;12.596;2023-03-08T16:58:02;14.80;1.00
37281;DHT22;23169;41.804;12.596;2023-03-08T17:00:32;14.80;1.00
37281;DHT22;23169;41.804;12.596;2023-03-08T17:03:01;14.70;1.00
37281;DHT22;23169;41.804;12.596;2023-03-08T17:05:30;14.70;1.00
37281;DHT22;23169;41.804;12.596;2023-03-08T17:07:58;14.70;1.00
37281;DHT22;23169;41.804;12.596;2023-03-08T17:10:27;14.70;1.00
37281;DHT22;23169;41.804;12.596;2023-03-08T17:12:56;14.70;1.00
37281;DHT22;23169;41.804;12.596;2023-03-08T17:15:24;14.60;1.00
37281;DHT22;23169;41.804;12.596;2023-03-08T17:17:52;14.50;1.00